createdAt,value
2023-03-07T00:00:28.378Z,1.55
2023-03-07T00:02:56.791Z,1.67
2023-03-07T00:05:25.135Z,1.92
2023-03-07T00:07:53.253Z,2.13
2023-03-07T00:10:21.670Z,1.70
2023-03-07T00:14:16.432Z,1.83
2023-03-07T00:16:44.700Z,2.15
2023-03-07T00:19:13.102Z,1.77
2023-03-07T00:24:11.284Z,1.83
2023-03-07T00:26:39.647Z,1.50
2023-03-07T00:29:09.456Z,2.75
2023-03-07T00:31:37.998Z,1.80
2023-03-07T00:36:34.871Z,2.08
2023-03-07T00:39:03.033Z,2.20
2023-03-07T00:41:31.346Z,1.85
2023-03-07T00:46:28.076Z,1.85
2023-03-07T00:48:56.388Z,2.30
2023-03-07T00:56:26.365Z,1.58
2023-03-07T00:58:54.771Z,2.45
2023-03-07T01:03:54.377Z,1.58
2023-03-07T01:06:28.519Z,1.90
2023-03-07T01:09:01.145Z,2.28
2023-03-07T01:11:30.592Z,1.70
2023-03-07T01:14:00.677Z,1.50
2023-03-07T01:16:38.746Z,2.50
2023-03-07T01:19:10.489Z,1.50
2023-03-07T01:21:41.372Z,2.03
2023-03-07T01:24:14.166Z,1.83
2023-03-07T01:26:43.408Z,1.77
2023-03-07T01:29:12.623Z,1.83
2023-03-07T01:31:40.875Z,1.25
2023-03-07T01:34:09.537Z,2.33
2023-03-07T01:36:38.549Z,1.73
2023-03-07T01:39:12.437Z,1.77
2023-03-07T01:41:45.424Z,1.48
2023-03-07T01:44:26.137Z,2.13
2023-03-07T01:46:56.365Z,1.58
2023-03-07T01:49:39.153Z,1.80
2023-03-07T01:52:10.411Z,1.63
2023-03-07T01:54:45.277Z,1.50
2023-03-07T01:57:13.656Z,1.50
2023-03-07T01:59:47.710Z,1.92
2023-03-07T02:02:18.711Z,1.60
2023-03-07T02:05:07.333Z,1.50
2023-03-07T02:07:46.890Z,1.85
2023-03-07T02:10:17.952Z,1.10
2023-03-07T02:12:46.671Z,1.30
2023-03-07T02:15:15.893Z,1.13
2023-03-07T02:17:45.174Z,1.27
2023-03-07T02:20:19.564Z,1.33
2023-03-07T02:22:50.197Z,1.38
2023-03-07T02:25:37.010Z,1.58
2023-03-07T02:28:09.270Z,1.13
2023-03-07T02:30:57.385Z,1.30
2023-03-07T02:33:27.115Z,1.10
2023-03-07T02:36:22.711Z,1.30
2023-03-07T02:39:03.833Z,1.10
2023-03-07T02:41:34.773Z,1.40
2023-03-07T02:44:08.798Z,1.23
2023-03-07T02:49:05.155Z,1.10
2023-03-07T02:51:33.977Z,1.35
2023-03-07T02:54:02.238Z,1.00
2023-03-07T02:56:30.611Z,1.27
2023-03-07T02:58:58.895Z,1.55
2023-03-07T03:03:56.015Z,1.10
2023-03-07T03:11:20.427Z,1.35
2023-03-07T03:13:48.891Z,1.00
2023-03-07T03:16:16.965Z,1.02
2023-03-07T03:18:45.439Z,1.35
2023-03-07T03:23:41.604Z,1.05
2023-03-07T03:26:12.248Z,1.17
2023-03-07T03:28:41.676Z,1.00
2023-03-07T03:31:14.150Z,0.90
2023-03-07T03:33:43.323Z,0.80
2023-03-07T03:36:15.096Z,0.95
2023-03-07T03:38:45.535Z,1.02
2023-03-07T03:41:15.888Z,0.80
2023-03-07T03:43:45.451Z,1.73
2023-03-07T03:46:14.134Z,1.00
2023-03-07T03:48:43.088Z,0.82
2023-03-07T03:53:43.060Z,1.13
2023-03-07T03:58:42.554Z,1.00
2023-03-07T04:01:12.871Z,1.17
2023-03-07T04:03:47.002Z,1.08
2023-03-07T04:06:28.580Z,1.20
2023-03-07T04:08:57.987Z,1.00
2023-03-07T04:11:26.820Z,1.00
2023-03-07T04:13:55.172Z,1.30
2023-03-07T04:16:24.556Z,1.77
2023-03-07T04:18:53.089Z,1.50
2023-03-07T04:21:22.792Z,1.50
2023-03-07T04:23:53.922Z,1.30
2023-03-07T04:26:23.443Z,1.45
2023-03-07T04:28:51.816Z,1.50
2023-03-07T04:31:41.868Z,1.27
2023-03-07T04:34:11.389Z,1.70
2023-03-07T04:36:39.719Z,1.50
2023-03-07T04:41:36.535Z,1.40
2023-03-07T04:44:24.886Z,1.17
2023-03-07T04:46:53.143Z,1.88
2023-03-07T04:49:21.490Z,1.73
2023-03-07T04:54:19.091Z,1.35
2023-03-07T04:56:49.576Z,1.13
2023-03-07T04:59:18.905Z,1.58
2023-03-07T05:01:48.267Z,1.20
2023-03-07T05:06:45.385Z,1.35
2023-03-07T05:09:14.259Z,1.70
2023-03-07T05:11:43.130Z,1.48
2023-03-07T05:16:39.629Z,1.45
2023-03-07T05:21:36.161Z,1.98
2023-03-07T05:26:33.407Z,1.90
2023-03-07T05:29:01.709Z,1.35
2023-03-07T05:31:29.898Z,1.67
2023-03-07T05:33:58.704Z,1.60
2023-03-07T05:38:54.942Z,1.85
2023-03-07T05:41:23.945Z,1.60
2023-03-07T05:43:52.300Z,1.50
2023-03-07T05:48:48.723Z,0.95
2023-03-07T05:51:18.008Z,1.80
2023-03-07T05:56:15.092Z,1.20
2023-03-07T05:58:43.820Z,1.40
2023-03-07T06:01:12.508Z,1.40
2023-03-07T06:03:41.549Z,1.95
2023-03-07T06:06:10.056Z,1.67
2023-03-07T06:11:06.845Z,1.52
2023-03-07T06:13:38.552Z,1.10
2023-03-07T06:16:07.131Z,1.73
2023-03-07T06:18:35.997Z,1.50
2023-03-07T06:21:08.753Z,1.27
2023-03-07T06:23:42.828Z,1.05
2023-03-07T06:26:15.061Z,1.50
2023-03-07T06:28:46.568Z,1.33
2023-03-07T06:31:18.548Z,1.08
2023-03-07T06:33:47.376Z,1.13
2023-03-07T06:36:18.742Z,1.13
2023-03-07T06:38:51.012Z,1.17
2023-03-07T06:41:19.688Z,1.50
2023-03-07T06:43:52.933Z,1.40
2023-03-07T06:46:27.045Z,1.50
2023-03-07T06:48:56.706Z,1.85
2023-03-07T06:51:25.693Z,1.00
2023-03-07T06:53:57.217Z,0.90
2023-03-07T06:56:26.667Z,1.80
2023-03-07T06:58:55.175Z,1.45
2023-03-07T07:01:25.583Z,1.33
2023-03-07T07:03:57.477Z,1.33
2023-03-07T07:06:26.539Z,1.38
2023-03-07T07:11:27.882Z,1.15
2023-03-07T07:13:56.981Z,1.63
2023-03-07T07:16:33.063Z,1.58
2023-03-07T07:19:01.698Z,1.60
2023-03-07T07:21:29.989Z,1.65
2023-03-07T07:26:27.463Z,0.98
2023-03-07T07:28:58.912Z,1.63
2023-03-07T07:31:27.364Z,1.25
2023-03-07T07:36:27.340Z,1.65
2023-03-07T07:41:23.766Z,2.15
2023-03-07T07:43:55.455Z,1.98
2023-03-07T07:49:01.802Z,2.85
2023-03-07T07:51:30.142Z,2.70
2023-03-07T07:53:58.601Z,3.10
2023-03-07T07:56:27.105Z,2.70
2023-03-07T07:58:55.404Z,2.45
2023-03-07T08:01:25.930Z,2.95
2023-03-07T08:03:54.332Z,2.58
2023-03-07T08:08:52.244Z,2.85
2023-03-07T08:11:21.463Z,2.40
2023-03-07T08:13:49.842Z,2.53
2023-03-07T08:16:20.239Z,2.97
2023-03-07T08:18:53.808Z,2.50
2023-03-07T08:21:22.422Z,3.10
2023-03-07T08:23:50.675Z,2.88
2023-03-07T08:28:46.854Z,3.00
2023-03-07T08:31:25.242Z,2.58
2023-03-07T08:33:53.897Z,2.25
2023-03-07T08:36:22.178Z,2.55
2023-03-07T08:41:20.073Z,2.20
2023-03-07T08:43:48.687Z,2.30
2023-03-07T08:46:17.321Z,2.17
2023-03-07T08:48:46.073Z,2.58
2023-03-07T08:51:16.089Z,2.60
2023-03-07T08:53:45.611Z,2.30
2023-03-07T08:56:17.232Z,1.98
2023-03-07T08:58:45.784Z,1.75
2023-03-07T09:01:14.046Z,1.80
2023-03-07T09:03:43.483Z,1.85
2023-03-07T09:06:18.004Z,2.00
2023-03-07T09:08:46.792Z,2.28
2023-03-07T09:11:16.026Z,1.92
2023-03-07T09:13:51.967Z,1.83
2023-03-07T09:16:22.389Z,2.15
2023-03-07T09:18:51.232Z,2.20
2023-03-07T09:21:20.107Z,2.03
2023-03-07T09:23:48.525Z,2.28
2023-03-07T09:26:17.046Z,2.15
2023-03-07T09:28:45.263Z,2.17
2023-03-07T09:31:15.728Z,1.90
2023-03-07T09:33:46.185Z,2.03
2023-03-07T09:36:16.186Z,2.03
2023-03-07T09:38:44.844Z,1.70
2023-03-07T09:41:42.145Z,1.80
2023-03-07T09:44:38.461Z,1.90
2023-03-07T09:47:43.120Z,1.80
2023-03-07T09:50:27.696Z,1.67
2023-03-07T09:53:00.561Z,1.92
2023-03-07T09:55:30.922Z,2.08
2023-03-07T09:58:08.510Z,1.75
2023-03-07T10:00:43.209Z,1.95
2023-03-07T10:03:33.145Z,1.85
2023-03-07T10:06:02.899Z,1.92
2023-03-07T10:08:33.874Z,1.67
2023-03-07T10:11:27.071Z,1.58
2023-03-07T10:14:21.865Z,2.15
2023-03-07T10:17:02.493Z,2.10
2023-03-07T10:19:53.374Z,1.40
2023-03-07T10:22:40.013Z,1.38
2023-03-07T10:25:08.223Z,1.50
2023-03-07T10:27:36.544Z,1.80
2023-03-07T10:32:49.553Z,1.30
2023-03-07T10:35:23.351Z,1.23
2023-03-07T10:38:10.322Z,1.60
2023-03-07T10:41:02.241Z,1.67
2023-03-07T10:43:33.613Z,1.27
2023-03-07T10:46:25.677Z,1.60
2023-03-07T10:49:16.562Z,1.73
2023-03-07T10:51:47.596Z,1.27
2023-03-07T10:54:20.759Z,1.23
2023-03-07T10:57:03.980Z,1.45
2023-03-07T10:59:32.418Z,1.23
2023-03-07T11:02:02.192Z,1.52
2023-03-07T11:04:46.501Z,1.60
2023-03-07T11:07:36.049Z,1.33
2023-03-07T11:10:35.489Z,1.38
2023-03-07T11:13:16.916Z,1.52
2023-03-07T11:15:45.552Z,1.20
2023-03-07T11:18:43.309Z,1.17
2023-03-07T11:21:36.107Z,1.42
2023-03-07T11:24:07.238Z,1.33
2023-03-07T11:26:40.898Z,1.65
2023-03-07T11:29:14.707Z,1.80
2023-03-07T11:32:11.361Z,1.70
2023-03-07T11:34:39.761Z,1.30
2023-03-07T11:42:40.272Z,1.52
2023-03-07T11:45:33.124Z,1.25
2023-03-07T11:48:26.154Z,1.17
2023-03-07T11:50:57.770Z,1.08
2023-03-07T11:53:34.834Z,1.08
2023-03-07T11:56:21.503Z,1.27
2023-03-07T11:59:13.193Z,1.70
2023-03-07T12:01:56.936Z,1.38
2023-03-07T12:04:31.242Z,1.20
2023-03-07T12:07:10.339Z,1.30
2023-03-07T12:09:46.199Z,1.40
2023-03-07T12:12:26.884Z,1.42
2023-03-07T12:15:10.426Z,1.27
2023-03-07T12:18:06.771Z,1.00
2023-03-07T12:20:53.569Z,1.25
2023-03-07T12:23:47.135Z,1.27
2023-03-07T12:26:33.476Z,1.17
2023-03-07T12:29:17.577Z,1.10
2023-03-07T12:31:51.729Z,1.40
2023-03-07T12:34:32.470Z,1.15
2023-03-07T12:37:23.116Z,1.05
2023-03-07T12:40:24.659Z,1.05
2023-03-07T12:43:11.280Z,1.10
2023-03-07T12:46:19.920Z,1.13
2023-03-07T12:48:48.224Z,1.50
2023-03-07T12:51:32.039Z,1.30
2023-03-07T12:54:20.298Z,1.27
2023-03-07T12:59:25.186Z,1.10
2023-03-07T13:02:11.090Z,1.45
2023-03-07T13:04:41.478Z,1.40
2023-03-07T13:07:17.863Z,1.10
2023-03-07T13:09:50.196Z,1.30
2023-03-07T13:12:34.369Z,1.40
2023-03-07T13:15:10.656Z,0.90
2023-03-07T13:17:39.023Z,1.88
2023-03-07T13:20:15.934Z,2.25
2023-03-07T13:22:44.189Z,2.28
2023-03-07T13:25:21.622Z,2.22
2023-03-07T13:27:52.348Z,1.70
2023-03-07T13:30:21.950Z,2.13
2023-03-07T13:32:50.291Z,2.40
2023-03-07T13:35:33.672Z,2.20
2023-03-07T13:38:22.025Z,2.42
2023-03-07T13:40:58.017Z,2.92
2023-03-07T13:43:28.034Z,2.75
2023-03-07T13:46:00.552Z,2.72
2023-03-07T13:48:28.879Z,2.67
2023-03-07T13:50:59.844Z,2.80
2023-03-07T13:53:57.356Z,2.75
2023-03-07T13:56:29.923Z,3.10
2023-03-07T13:59:11.768Z,3.17
2023-03-07T14:01:47.027Z,2.60
2023-03-07T14:04:39.005Z,2.72
2023-03-07T14:07:24.306Z,2.45
2023-03-07T14:10:12.698Z,2.45
2023-03-07T14:13:10.967Z,2.80
2023-03-07T14:16:24.035Z,2.60
2023-03-07T14:19:04.298Z,2.40
2023-03-07T14:21:57.778Z,2.35
2023-03-07T14:25:03.346Z,2.28
2023-03-07T14:27:32.805Z,2.15
2023-03-07T14:30:01.091Z,1.92
2023-03-07T14:32:32.288Z,1.80
2023-03-07T14:35:00.686Z,2.25
2023-03-07T14:37:30.713Z,1.60
2023-03-07T14:40:20.674Z,1.73
2023-03-07T14:43:10.432Z,2.20
2023-03-07T14:45:50.933Z,1.88
2023-03-07T14:48:43.948Z,2.10
2023-03-07T14:51:24.730Z,1.55
2023-03-07T14:53:53.107Z,1.55
2023-03-07T14:56:28.558Z,1.40
2023-03-07T14:59:01.018Z,1.35
2023-03-07T15:01:32.746Z,1.65
2023-03-07T15:04:01.038Z,1.70
2023-03-07T15:06:30.506Z,1.73
2023-03-07T15:09:01.032Z,1.50
2023-03-07T15:11:41.124Z,1.25
2023-03-07T15:14:32.750Z,1.70
2023-03-07T15:17:12.773Z,2.03
2023-03-07T15:19:48.982Z,1.10
2023-03-07T15:22:29.428Z,1.60
2023-03-07T15:24:58.063Z,1.77
2023-03-07T15:27:31.772Z,1.50
2023-03-07T15:30:03.086Z,1.85
2023-03-07T15:32:40.866Z,1.45
2023-03-07T15:35:09.282Z,1.63
2023-03-07T15:51:17.043Z,1.95
2023-03-07T15:53:54.044Z,1.80
2023-03-07T15:56:25.323Z,2.20
2023-03-07T15:59:03.358Z,1.83
2023-03-07T16:01:31.627Z,1.85
2023-03-07T16:04:04.155Z,2.20
2023-03-07T16:06:44.986Z,1.80
2023-03-07T16:09:18.828Z,1.73
2023-03-07T16:11:47.512Z,1.67
2023-03-07T16:14:31.540Z,1.70
2023-03-07T16:17:03.158Z,1.75
2023-03-07T16:19:31.725Z,1.85
2023-03-07T16:22:00.014Z,1.40
2023-03-07T16:24:28.499Z,1.98
2023-03-07T16:27:06.025Z,1.38
2023-03-07T16:29:34.411Z,1.50
2023-03-07T16:34:31.100Z,1.42
2023-03-07T16:39:27.280Z,1.85
2023-03-07T16:41:55.622Z,1.60
2023-03-07T16:44:23.907Z,1.65
2023-03-07T16:47:14.030Z,1.50
2023-03-07T16:49:42.442Z,1.70
2023-03-07T16:54:42.510Z,1.50
2023-03-07T16:57:17.563Z,1.65
2023-03-07T16:59:48.941Z,1.30
2023-03-07T17:02:22.356Z,1.23
2023-03-07T17:04:50.810Z,1.40
2023-03-07T17:09:48.372Z,1.27
2023-03-07T17:12:18.379Z,1.40
2023-03-07T17:14:46.969Z,1.92
2023-03-07T17:17:25.861Z,2.00
2023-03-07T17:19:54.308Z,1.27
2023-03-07T17:22:22.620Z,1.48
2023-03-07T17:27:20.200Z,1.50
2023-03-07T17:29:53.896Z,1.20
2023-03-07T17:32:22.577Z,1.10
2023-03-07T17:34:51.142Z,1.15
2023-03-07T17:42:15.424Z,1.08
2023-03-07T17:49:43.821Z,1.25
2023-03-07T17:52:12.984Z,1.35
2023-03-07T17:54:41.269Z,1.20
2023-03-07T17:59:37.813Z,1.45
2023-03-07T18:04:34.503Z,1.30
2023-03-07T18:07:02.924Z,1.92
2023-03-07T18:11:59.874Z,1.25
2023-03-07T18:14:28.714Z,1.35
2023-03-07T18:16:57.256Z,1.30
2023-03-07T18:19:27.249Z,1.85
2023-03-07T18:21:56.520Z,1.27
2023-03-07T18:24:28.377Z,1.13
2023-03-07T18:26:58.261Z,1.15
2023-03-07T18:29:29.927Z,1.67
2023-03-07T18:31:59.801Z,0.95
2023-03-07T18:34:28.871Z,1.27
2023-03-07T18:36:57.987Z,1.55
2023-03-07T18:39:26.473Z,1.35
2023-03-07T18:41:54.908Z,1.80
2023-03-07T18:44:23.510Z,1.52
2023-03-07T18:46:52.351Z,1.33
2023-03-07T18:49:20.942Z,1.20
2023-03-07T18:56:48.957Z,1.63
2023-03-07T18:59:18.278Z,1.20
2023-03-07T19:01:47.058Z,1.30
2023-03-07T19:04:15.633Z,1.20
2023-03-07T19:06:45.440Z,1.20
2023-03-07T19:09:17.450Z,1.63
2023-03-07T19:11:46.591Z,1.45
2023-03-07T19:14:15.055Z,1.17
2023-03-07T19:16:43.628Z,1.48
2023-03-07T19:19:12.115Z,1.83
2023-03-07T19:21:40.529Z,1.42
2023-03-07T19:24:10.186Z,1.42
2023-03-07T19:26:38.544Z,1.95
2023-03-07T19:29:07.016Z,1.30
2023-03-07T19:31:35.496Z,1.58
2023-03-07T19:34:05.100Z,1.40
2023-03-07T19:36:34.566Z,1.50
2023-03-07T19:39:03.889Z,1.58
2023-03-07T19:41:33.119Z,1.90
2023-03-07T19:44:02.003Z,1.63
2023-03-07T19:46:30.235Z,1.77
2023-03-07T19:48:59.058Z,1.88
2023-03-07T19:51:27.687Z,1.83
2023-03-07T19:53:57.501Z,1.63
2023-03-07T19:56:30.803Z,2.05
2023-03-07T19:59:01.427Z,2.10
2023-03-07T20:01:30.790Z,2.10
2023-03-07T20:03:59.361Z,2.05
2023-03-07T20:06:30.615Z,1.95
2023-03-07T20:09:00.842Z,1.92
2023-03-07T20:11:34.443Z,2.17
2023-03-07T20:14:05.654Z,1.90
2023-03-07T20:16:35.469Z,2.13
2023-03-07T20:19:07.103Z,2.13
2023-03-07T20:21:36.565Z,2.05
2023-03-07T20:24:05.453Z,2.75
2023-03-07T20:26:37.322Z,2.20
2023-03-07T20:29:07.167Z,1.83
2023-03-07T20:31:36.138Z,2.22
2023-03-07T20:34:04.760Z,2.33
2023-03-07T20:36:34.874Z,2.30
2023-03-07T20:39:07.208Z,2.20
2023-03-07T20:41:36.107Z,2.20
2023-03-07T20:44:06.847Z,1.65
2023-03-07T20:46:36.242Z,2.05
2023-03-07T20:49:07.705Z,2.10
2023-03-07T20:51:37.664Z,2.30
2023-03-07T20:54:12.539Z,2.17
2023-03-07T20:56:41.919Z,2.40
2023-03-07T20:59:14.035Z,2.30
2023-03-07T21:01:43.209Z,2.13
2023-03-07T21:04:13.941Z,2.80
2023-03-07T21:06:44.740Z,2.15
2023-03-07T21:21:18.968Z,2.80
2023-03-07T21:23:48.351Z,2.78
2023-03-07T21:26:19.722Z,2.30
2023-03-07T21:28:49.224Z,2.67
2023-03-07T21:31:20.760Z,3.30
2023-03-07T21:33:54.345Z,2.30
2023-03-07T21:36:23.740Z,2.47
2023-03-07T21:38:52.029Z,2.15
2023-03-07T21:41:21.417Z,2.78
2023-03-07T21:43:50.195Z,2.65
2023-03-07T21:46:18.581Z,3.00
2023-03-07T21:48:47.267Z,3.00
2023-03-07T21:51:15.929Z,2.92
2023-03-07T21:53:44.323Z,3.13
2023-03-07T21:58:42.167Z,2.30
2023-03-07T22:04:07.822Z,2.72
2023-03-07T22:09:05.033Z,2.10
2023-03-07T22:11:33.365Z,2.80
2023-03-07T22:14:01.536Z,2.75
2023-03-07T22:16:29.995Z,2.35
2023-03-07T22:18:58.252Z,2.40
2023-03-07T22:21:26.974Z,2.60
2023-03-07T22:23:57.299Z,3.40
2023-03-07T22:26:25.941Z,2.50
2023-03-07T22:28:54.783Z,2.58
2023-03-07T22:31:23.388Z,2.72
2023-03-07T22:33:51.761Z,2.97
2023-03-07T22:36:20.230Z,3.10
2023-03-07T22:43:46.428Z,3.10
2023-03-07T22:46:15.059Z,2.72
2023-03-07T22:48:43.579Z,2.60
2023-03-07T22:51:19.130Z,2.42
2023-03-07T22:53:48.198Z,3.08
2023-03-07T22:56:35.547Z,3.08
2023-03-07T22:59:05.871Z,3.30
2023-03-07T23:01:34.369Z,2.65
2023-03-07T23:04:02.829Z,3.30
2023-03-07T23:09:04.641Z,3.10
2023-03-07T23:11:34.480Z,3.47
2023-03-07T23:14:03.067Z,3.83
2023-03-07T23:19:00.979Z,3.38
2023-03-07T23:21:31.480Z,3.60
2023-03-07T23:24:01.229Z,3.70
2023-03-07T23:26:35.109Z,4.65
2023-03-07T23:29:04.888Z,4.15
2023-03-07T23:31:36.758Z,4.40
2023-03-07T23:34:15.005Z,4.07
2023-03-07T23:39:12.255Z,4.82
2023-03-07T23:41:40.541Z,4.32
2023-03-07T23:44:08.888Z,4.03
2023-03-07T23:46:37.255Z,5.10
2023-03-07T23:49:07.438Z,5.15
2023-03-07T23:51:35.844Z,5.35
2023-03-07T23:56:32.184Z,5.22
2023-03-07T23:59:00.591Z,5.32
